Terminal Aerodrome Forecast
Issued by NWS

Current Version | Previous Version | Graphics & Text | Print | Product List | Glossary On
Versions: 1 2 3 4 5 6 7 8 9 10 11 12 13 14 15 16 17 18 19 20 21 22
136
FTUS41 KRLX 231723
TAFCKB
TAF
KCKB 231723Z 2318/2418 VRB04KT P6SM FEW040
     FM240900 00000KT 4SM BR FEW250
     FM241200 VRB04KT P6SM FEW130=

USA.gov is the U.S. government's official web portal to all federal, state and local government web resources and services.